Time;durP1;ratioP1;P1;durP2;ratioP2;P2;SDS_P1;SDS_P2;PMS_P1;PMS_P2;Temp;Humidity;BMP_temperature;BMP_pressure;BME280_temperature;BME280_humidity;BME280_pressure;Samples;Min_cycle;Max_cycle;Signal;HPM_P1;HPM_P2
2022/03/08 00:00:31;;;;;;;12.43;6.13;;;;;;;;;;5087074;28;20459;-58
2022/03/08 00:02:57;;;;;;;12.18;6.35;;;;;;;;;;5086305;28;20413;-58
2022/03/08 00:05:24;;;;;;;12.68;6.47;;;;;;;;;;5084271;28;20451;-58
2022/03/08 00:07:50;;;;;;;12.07;6.68;;;;;;;;;;5067872;28;20032;-58
2022/03/08 00:10:16;;;;;;;14.35;7.20;;;;;;;;;;5086812;28;20115;-58
2022/03/08 00:12:42;;;;;;;13.10;7.10;;;;;;;;;;5087269;28;20035;-58
2022/03/08 00:15:12;;;;;;;12.52;7.13;;;;;;;;;;5081638;28;20081;-58
2022/03/08 00:17:38;;;;;;;13.82;7.28;;;;;;;;;;5085472;28;20032;-58
2022/03/08 00:20:06;;;;;;;11.75;7.22;;;;;;;;;;5087261;28;20032;-58
2022/03/08 00:22:32;;;;;;;13.77;7.20;;;;;;;;;;5087139;28;20164;-58
2022/03/08 00:25:01;;;;;;;14.15;8.13;;;;;;;;;;5085155;28;20127;-58
2022/03/08 00:27:27;;;;;;;13.63;7.63;;;;;;;;;;5088472;28;20187;-58
2022/03/08 00:29:53;;;;;;;14.13;6.85;;;;;;;;;;5089644;28;20171;-58
2022/03/08 00:32:19;;;;;;;11.98;7.07;;;;;;;;;;5081832;28;20137;-58
2022/03/08 00:34:45;;;;;;;12.43;7.30;;;;;;;;;;5084348;28;20791;-58
2022/03/08 00:37:11;;;;;;;12.13;7.38;;;;;;;;;;5084872;28;20052;-58
2022/03/08 00:39:37;;;;;;;10.20;6.35;;;;;;;;;;5086745;28;20040;-58
2022/03/08 00:42:03;;;;;;;12.30;7.60;;;;;;;;;;5084480;28;20091;-58
2022/03/08 00:44:29;;;;;;;12.55;7.13;;;;;;;;;;5085666;28;20043;-58
2022/03/08 00:46:55;;;;;;;12.20;6.68;;;;;;;;;;5083149;28;20036;-58
2022/03/08 00:49:21;;;;;;;14.40;7.32;;;;;;;;;;5080636;28;20043;-58
2022/03/08 00:51:47;;;;;;;13.07;7.10;;;;;;;;;;5082718;28;20111;-58
2022/03/08 00:54:13;;;;;;;12.73;7.50;;;;;;;;;;5086572;28;20115;-58
2022/03/08 00:56:39;;;;;;;12.40;7.22;;;;;;;;;;5081396;28;20098;-58
2022/03/08 00:59:05;;;;;;;13.55;7.10;;;;;;;;;;5082281;28;20044;-58
2022/03/08 01:01:31;;;;;;;13.20;6.72;;;;;;;;;;5087034;28;20036;-58
2022/03/08 01:03:57;;;;;;;13.48;7.50;;;;;;;;;;5085553;28;20047;-58
2022/03/08 01:06:23;;;;;;;12.75;7.30;;;;;;;;;;5082883;28;20040;-59
2022/03/08 01:08:49;;;;;;;13.55;7.28;;;;;;;;;;5081594;28;20040;-58
2022/03/08 01:11:15;;;;;;;11.98;7.80;;;;;;;;;;5073747;28;20708;-59
2022/03/08 01:13:42;;;;;;;16.80;8.25;;;;;;;;;;5085702;28;20098;-58
2022/03/08 01:16:08;;;;;;;11.75;7.13;;;;;;;;;;5083008;28;20070;-58
2022/03/08 01:18:33;;;;;;;15.35;8.02;;;;;;;;;;5083684;28;20037;-58
2022/03/08 01:20:59;;;;;;;19.45;8.02;;;;;;;;;;5087324;28;20138;-58
2022/03/08 01:23:25;;;;;;;12.30;7.93;;;;;;;;;;5086224;28;20040;-58
2022/03/08 01:25:51;;;;;;;13.95;7.95;;;;;;;;;;5085216;28;20051;-58
2022/03/08 01:28:18;;;;;;;11.13;6.32;;;;;;;;;;5086415;28;20489;-59
2022/03/08 01:30:44;;;;;;;16.25;7.60;;;;;;;;;;5084848;28;20036;-59
2022/03/08 01:33:10;;;;;;;16.50;7.30;;;;;;;;;;5085069;28;20032;-59
2022/03/08 01:35:36;;;;;;;14.23;7.50;;;;;;;;;;5084358;28;20044;-59
2022/03/08 01:38:02;;;;;;;15.10;7.70;;;;;;;;;;5086422;28;20127;-59
2022/03/08 01:40:28;;;;;;;14.07;7.40;;;;;;;;;;5083952;28;20044;-59
2022/03/08 01:42:54;;;;;;;15.45;8.00;;;;;;;;;;5084919;28;20028;-59
2022/03/08 01:45:21;;;;;;;13.07;7.93;;;;;;;;;;5086565;28;20085;-59
2022/03/08 01:47:48;;;;;;;13.60;7.20;;;;;;;;;;5080252;28;20047;-59
2022/03/08 01:50:15;;;;;;;13.90;7.80;;;;;;;;;;5083513;28;20040;-59
2022/03/08 01:52:42;;;;;;;13.38;7.88;;;;;;;;;;5081822;28;20474;-59
2022/03/08 01:55:09;;;;;;;15.35;8.38;;;;;;;;;;5085328;28;20039;-59
2022/03/08 01:57:35;;;;;;;16.23;7.93;;;;;;;;;;5083676;28;20181;-59
2022/03/08 02:00:01;;;;;;;14.65;8.35;;;;;;;;;;5084568;28;20043;-59
2022/03/08 02:02:27;;;;;;;15.38;8.13;;;;;;;;;;5089672;28;20036;-59
2022/03/08 02:04:53;;;;;;;14.93;7.90;;;;;;;;;;5084274;28;20063;-59
2022/03/08 02:07:19;;;;;;;15.00;8.60;;;;;;;;;;5078795;28;20076;-59
2022/03/08 02:09:45;;;;;;;14.57;7.82;;;;;;;;;;5086178;28;21132;-59
2022/03/08 02:12:11;;;;;;;15.57;8.43;;;;;;;;;;5083730;28;20420;-58
2022/03/08 02:14:37;;;;;;;14.88;8.80;;;;;;;;;;5085324;28;20047;-59
2022/03/08 02:17:03;;;;;;;17.00;8.68;;;;;;;;;;5085929;28;20041;-59
2022/03/08 02:19:29;;;;;;;15.20;8.32;;;;;;;;;;5086072;28;20047;-59
2022/03/08 02:21:56;;;;;;;15.95;9.20;;;;;;;;;;5084463;28;20468;-58
2022/03/08 02:24:22;;;;;;;15.25;8.55;;;;;;;;;;5085159;28;20036;-59
2022/03/08 02:26:48;;;;;;;14.35;8.88;;;;;;;;;;5085412;28;20082;-59
2022/03/08 02:29:15;;;;;;;15.07;8.68;;;;;;;;;;5086472;28;20438;-59
2022/03/08 02:31:41;;;;;;;16.63;8.95;;;;;;;;;;5064007;28;20045;-59
2022/03/08 02:34:07;;;;;;;17.63;9.77;;;;;;;;;;5078429;28;20547;-59
2022/03/08 02:36:33;;;;;;;15.77;9.00;;;;;;;;;;5081092;28;20374;-59
2022/03/08 02:38:59;;;;;;;16.45;9.07;;;;;;;;;;5081929;28;20051;-59
2022/03/08 02:41:25;;;;;;;18.70;9.75;;;;;;;;;;5083423;28;20044;-59
2022/03/08 02:43:51;;;;;;;18.83;10.05;;;;;;;;;;5083147;28;20075;-59
2022/03/08 02:46:17;;;;;;;14.95;9.00;;;;;;;;;;5086008;28;20066;-59
2022/03/08 02:48:43;;;;;;;15.25;9.18;;;;;;;;;;5082846;28;20048;-59
2022/03/08 02:51:09;;;;;;;15.57;9.32;;;;;;;;;;5085216;28;20044;-59
2022/03/08 02:53:35;;;;;;;16.23;9.40;;;;;;;;;;5086543;28;20769;-59
2022/03/08 02:56:01;;;;;;;16.35;9.27;;;;;;;;;;5066051;28;20054;-59
2022/03/08 02:58:27;;;;;;;16.65;9.18;;;;;;;;;;5083952;28;20028;-59
2022/03/08 03:00:53;;;;;;;18.35;9.77;;;;;;;;;;5068356;28;20382;-59
2022/03/08 03:03:19;;;;;;;15.75;9.77;;;;;;;;;;5081132;28;20043;-59
2022/03/08 03:05:45;;;;;;;17.50;10.45;;;;;;;;;;5083814;28;20084;-58
2022/03/08 03:08:12;;;;;;;17.27;9.50;;;;;;;;;;5085935;28;20059;-58
2022/03/08 03:10:39;;;;;;;18.30;9.90;;;;;;;;;;5082940;28;20439;-58
2022/03/08 03:13:05;;;;;;;17.83;10.18;;;;;;;;;;5085515;28;20447;-58
2022/03/08 03:15:31;;;;;;;17.17;10.00;;;;;;;;;;5062611;28;20036;-58
2022/03/08 03:17:58;;;;;;;20.60;10.45;;;;;;;;;;5086794;28;20035;-58
2022/03/08 03:20:26;;;;;;;19.83;10.70;;;;;;;;;;5085539;28;20036;-58
2022/03/08 03:22:52;;;;;;;17.23;9.55;;;;;;;;;;5084928;28;20052;-58
2022/03/08 03:25:18;;;;;;;18.90;9.90;;;;;;;;;;5079594;28;20449;-58
2022/03/08 03:27:44;;;;;;;17.25;10.50;;;;;;;;;;5086550;28;20036;-58
2022/03/08 03:30:13;;;;;;;18.95;10.95;;;;;;;;;;5092298;28;20044;-58
2022/03/08 03:32:39;;;;;;;18.73;10.75;;;;;;;;;;5081969;28;20033;-58
2022/03/08 03:35:06;;;;;;;17.90;10.63;;;;;;;;;;5081744;28;20038;-58
2022/03/08 03:37:33;;;;;;;18.83;10.27;;;;;;;;;;5076693;28;20049;-58
2022/03/08 03:39:59;;;;;;;18.08;10.30;;;;;;;;;;5082437;28;20036;-58
2022/03/08 03:42:25;;;;;;;18.92;10.80;;;;;;;;;;5087447;28;20111;-58
2022/03/08 03:44:51;;;;;;;17.42;10.07;;;;;;;;;;5080743;28;20112;-58
2022/03/08 03:47:17;;;;;;;19.75;11.05;;;;;;;;;;5085455;28;20035;-58
2022/03/08 03:49:43;;;;;;;19.00;10.60;;;;;;;;;;5079285;28;20098;-58
2022/03/08 03:52:09;;;;;;;17.92;10.40;;;;;;;;;;5082448;28;20401;-58
2022/03/08 03:54:35;;;;;;;16.73;9.10;;;;;;;;;;5087868;28;20565;-58
2022/03/08 03:57:01;;;;;;;17.65;10.23;;;;;;;;;;5084291;28;20047;-58
2022/03/08 03:59:27;;;;;;;17.55;10.10;;;;;;;;;;5081443;28;20115;-58
2022/03/08 04:01:53;;;;;;;17.92;10.68;;;;;;;;;;5081003;28;20120;-58
2022/03/08 04:04:19;;;;;;;20.80;11.77;;;;;;;;;;5077989;28;20044;-58
2022/03/08 04:06:45;;;;;;;22.85;12.23;;;;;;;;;;5080535;28;20658;-57
2022/03/08 04:09:13;;;;;;;19.95;11.02;;;;;;;;;;5082192;28;20028;-58
2022/03/08 04:11:39;;;;;;;21.65;12.10;;;;;;;;;;5078441;28;20043;-58
2022/03/08 04:14:05;;;;;;;19.60;12.00;;;;;;;;;;5083758;28;20142;-58
2022/03/08 04:16:31;;;;;;;21.73;13.07;;;;;;;;;;5082565;28;20103;-58
2022/03/08 04:18:57;;;;;;;21.35;11.73;;;;;;;;;;5079864;28;20413;-58
2022/03/08 04:21:23;;;;;;;19.83;11.60;;;;;;;;;;5086480;28;20036;-58
2022/03/08 04:23:49;;;;;;;20.80;11.95;;;;;;;;;;5081463;28;20077;-58
2022/03/08 04:26:15;;;;;;;26.77;12.52;;;;;;;;;;5085540;28;20529;-58
2022/03/08 04:28:41;;;;;;;23.27;12.50;;;;;;;;;;5080919;28;20040;-58
2022/03/08 04:31:07;;;;;;;22.75;12.00;;;;;;;;;;5080320;28;20032;-58
2022/03/08 04:33:33;;;;;;;24.85;13.35;;;;;;;;;;5085058;28;20830;-58
2022/03/08 04:35:59;;;;;;;21.98;13.00;;;;;;;;;;5081738;28;20072;-58
2022/03/08 04:38:25;;;;;;;20.90;12.30;;;;;;;;;;5080845;28;20048;-58
2022/03/08 04:40:51;;;;;;;20.27;12.13;;;;;;;;;;5090218;28;20032;-58
2022/03/08 04:43:17;;;;;;;24.67;13.15;;;;;;;;;;5090559;28;20043;-58
2022/03/08 04:45:43;;;;;;;22.75;13.13;;;;;;;;;;5070194;28;20040;-58
2022/03/08 04:48:09;;;;;;;22.83;13.30;;;;;;;;;;5079645;28;20501;-59
2022/03/08 04:50:35;;;;;;;23.77;13.23;;;;;;;;;;5083823;28;20032;-58
2022/03/08 04:53:01;;;;;;;24.05;14.13;;;;;;;;;;5091389;28;20043;-58
2022/03/08 04:55:27;;;;;;;27.65;13.57;;;;;;;;;;5090227;28;20040;-57
2022/03/08 04:57:52;;;;;;;26.58;13.63;;;;;;;;;;5095048;28;20047;-58
2022/03/08 05:00:18;;;;;;;22.23;12.80;;;;;;;;;;5094148;28;20075;-58
2022/03/08 05:02:45;;;;;;;23.80;13.20;;;;;;;;;;5098398;28;20124;-58
2022/03/08 05:05:12;;;;;;;21.70;12.80;;;;;;;;;;5110429;28;20039;-58
2022/03/08 05:07:39;;;;;;;24.17;12.80;;;;;;;;;;5094531;28;20036;-58
2022/03/08 05:10:06;;;;;;;20.23;12.90;;;;;;;;;;5095175;28;20499;-58
2022/03/08 05:12:32;;;;;;;26.83;14.00;;;;;;;;;;5094872;28;20081;-58
2022/03/08 05:14:58;;;;;;;28.83;13.40;;;;;;;;;;5087898;28;20075;-58
2022/03/08 05:17:24;;;;;;;23.45;13.25;;;;;;;;;;5093558;28;20516;-58
2022/03/08 05:19:50;;;;;;;24.35;13.77;;;;;;;;;;5094439;28;20165;-58
2022/03/08 05:22:16;;;;;;;22.17;13.23;;;;;;;;;;5094490;28;20090;-58
2022/03/08 05:24:42;;;;;;;24.80;14.07;;;;;;;;;;5103169;22;20076;-58
2022/03/08 05:27:08;;;;;;;25.70;14.07;;;;;;;;;;5054390;28;20048;-58
2022/03/08 05:29:34;;;;;;;23.02;13.70;;;;;;;;;;5053668;28;20376;-58
2022/03/08 05:32:01;;;;;;;22.02;13.15;;;;;;;;;;5054172;28;20036;-57
2022/03/08 05:34:28;;;;;;;23.70;14.02;;;;;;;;;;5057110;28;20125;-58
2022/03/08 05:36:55;;;;;;;21.27;13.43;;;;;;;;;;5066128;28;20106;-58
2022/03/08 05:39:22;;;;;;;23.45;13.23;;;;;;;;;;5070400;28;20043;-59
2022/03/08 05:41:48;;;;;;;23.93;13.67;;;;;;;;;;5077804;28;20036;-57
2022/03/08 05:44:14;;;;;;;27.02;14.00;;;;;;;;;;5063827;28;20059;-57
2022/03/08 05:46:40;;;;;;;24.05;13.25;;;;;;;;;;5074131;28;20040;-57
2022/03/08 05:49:06;;;;;;;24.52;13.48;;;;;;;;;;5072140;28;20522;-58
2022/03/08 05:51:32;;;;;;;24.70;14.02;;;;;;;;;;5074527;28;20116;-57
2022/03/08 05:53:58;;;;;;;22.17;13.03;;;;;;;;;;5072661;28;20040;-58
2022/03/08 05:56:24;;;;;;;24.47;13.83;;;;;;;;;;5072834;28;20094;-57
2022/03/08 05:58:50;;;;;;;27.33;13.73;;;;;;;;;;5073555;28;20040;-57
2022/03/08 06:01:16;;;;;;;24.88;13.82;;;;;;;;;;5073428;28;20119;-57
2022/03/08 06:03:42;;;;;;;27.33;14.20;;;;;;;;;;5072322;28;20037;-57
2022/03/08 06:06:08;;;;;;;26.20;14.05;;;;;;;;;;5072972;28;20090;-57
2022/03/08 06:08:34;;;;;;;27.20;15.82;;;;;;;;;;5072208;28;20032;-57
2022/03/08 06:11:00;;;;;;;26.40;15.27;;;;;;;;;;5073513;28;20045;-58
2022/03/08 06:13:26;;;;;;;30.02;16.23;;;;;;;;;;5073303;28;20040;-58
2022/03/08 06:15:52;;;;;;;29.67;15.23;;;;;;;;;;5072679;28;20036;-58
2022/03/08 06:18:18;;;;;;;30.85;14.77;;;;;;;;;;5073307;28;20498;-58
2022/03/08 06:20:44;;;;;;;30.50;15.07;;;;;;;;;;5072479;28;20051;-58
2022/03/08 06:23:10;;;;;;;29.77;15.17;;;;;;;;;;5073425;28;20485;-58
2022/03/08 06:25:36;;;;;;;28.33;15.23;;;;;;;;;;5072143;28;20055;-58
2022/03/08 06:28:02;;;;;;;27.75;14.68;;;;;;;;;;5073080;28;20032;-58
2022/03/08 06:30:28;;;;;;;27.17;14.18;;;;;;;;;;5073017;28;20109;-58
2022/03/08 06:32:54;;;;;;;28.98;15.25;;;;;;;;;;5068362;28;20482;-58
2022/03/08 06:35:20;;;;;;;29.30;15.50;;;;;;;;;;5066216;28;20039;-58
2022/03/08 06:37:46;;;;;;;27.05;14.77;;;;;;;;;;5072303;28;20565;-58
2022/03/08 06:40:12;;;;;;;26.67;14.98;;;;;;;;;;5063648;28;20059;-58
2022/03/08 06:42:38;;;;;;;26.35;13.55;;;;;;;;;;5071748;28;20051;-58
2022/03/08 06:45:05;;;;;;;24.75;14.27;;;;;;;;;;5071101;28;20490;-58
2022/03/08 06:47:31;;;;;;;25.27;13.88;;;;;;;;;;5071537;28;20508;-58
2022/03/08 06:49:58;;;;;;;26.42;14.85;;;;;;;;;;5072843;28;20032;-58
2022/03/08 06:52:24;;;;;;;26.88;14.52;;;;;;;;;;5072690;28;20094;-58
2022/03/08 06:54:50;;;;;;;23.23;12.75;;;;;;;;;;5071919;28;20033;-57
2022/03/08 06:57:16;;;;;;;25.83;13.52;;;;;;;;;;5072785;28;20048;-58
2022/03/08 06:59:42;;;;;;;30.23;16.95;;;;;;;;;;5074839;28;20032;-58
2022/03/08 07:02:08;;;;;;;23.98;14.95;;;;;;;;;;5072499;28;20418;-58
2022/03/08 07:04:34;;;;;;;28.80;17.42;;;;;;;;;;5077825;28;20064;-58
2022/03/08 07:07:00;;;;;;;28.17;16.10;;;;;;;;;;5079787;28;20101;-58
2022/03/08 07:09:26;;;;;;;22.45;13.65;;;;;;;;;;5067201;28;20410;-58
2022/03/08 07:11:52;;;;;;;38.95;22.40;;;;;;;;;;5066746;28;20402;-57
2022/03/08 07:14:18;;;;;;;25.58;15.40;;;;;;;;;;5070705;28;20041;-58
2022/03/08 07:16:48;;;;;;;26.60;14.80;;;;;;;;;;5068887;28;20044;-58
2022/03/08 07:19:14;;;;;;;23.75;14.40;;;;;;;;;;5064167;28;20040;-57
2022/03/08 07:21:41;;;;;;;29.83;17.42;;;;;;;;;;5069873;28;20067;-57
2022/03/08 07:24:07;;;;;;;34.08;20.00;;;;;;;;;;5078702;28;20082;-58
2022/03/08 07:26:34;;;;;;;27.17;14.93;;;;;;;;;;5081194;28;20123;-57
2022/03/08 07:29:00;;;;;;;26.80;15.27;;;;;;;;;;5070790;28;20398;-57
2022/03/08 07:31:26;;;;;;;24.05;13.60;;;;;;;;;;5063209;28;20040;-57
2022/03/08 07:33:52;;;;;;;24.42;13.35;;;;;;;;;;5071683;28;20059;-57
2022/03/08 07:36:18;;;;;;;22.17;12.88;;;;;;;;;;5066564;28;20112;-58
2022/03/08 07:38:44;;;;;;;24.65;13.15;;;;;;;;;;5071792;28;20036;-58
2022/03/08 07:41:10;;;;;;;21.65;12.73;;;;;;;;;;5066186;28;20142;-58
2022/03/08 07:43:36;;;;;;;22.33;15.30;;;;;;;;;;5068686;28;20131;-58
2022/03/08 07:46:06;;;;;;;23.33;12.45;;;;;;;;;;5070411;28;20567;-58
2022/03/08 07:48:32;;;;;;;19.60;12.05;;;;;;;;;;5066461;28;20068;-58
2022/03/08 07:50:59;;;;;;;23.60;13.13;;;;;;;;;;5071624;28;20047;-58
2022/03/08 07:53:25;;;;;;;22.05;12.52;;;;;;;;;;5066168;28;20398;-59
2022/03/08 07:55:51;;;;;;;21.33;13.32;;;;;;;;;;5074810;28;20036;-59
2022/03/08 07:58:17;;;;;;;22.02;13.23;;;;;;;;;;5062193;28;20512;-58
2022/03/08 08:00:43;;;;;;;27.48;14.15;;;;;;;;;;5061927;28;20074;-58
2022/03/08 08:03:09;;;;;;;21.20;12.35;;;;;;;;;;5071161;28;20097;-58
2022/03/08 08:05:35;;;;;;;24.00;13.30;;;;;;;;;;5070802;28;20405;-58
2022/03/08 08:08:02;;;;;;;25.10;13.60;;;;;;;;;;5069907;28;20035;-59
2022/03/08 08:10:28;;;;;;;21.92;13.00;;;;;;;;;;5069327;28;20036;-58
2022/03/08 08:12:54;;;;;;;21.90;12.60;;;;;;;;;;5067275;28;20032;-58
2022/03/08 08:15:20;;;;;;;20.13;12.02;;;;;;;;;;5069754;28;20111;-58
2022/03/08 08:17:46;;;;;;;21.55;12.70;;;;;;;;;;5069198;28;20119;-59
2022/03/08 08:20:12;;;;;;;20.90;11.90;;;;;;;;;;5062777;28;20045;-59
2022/03/08 08:22:38;;;;;;;18.23;11.70;;;;;;;;;;5058587;28;20029;-58
2022/03/08 08:25:05;;;;;;;19.27;12.57;;;;;;;;;;5071635;28;20106;-58
2022/03/08 08:27:31;;;;;;;17.08;11.73;;;;;;;;;;5070076;28;20116;-58
2022/03/08 08:29:57;;;;;;;20.00;11.70;;;;;;;;;;5070034;28;20115;-58
2022/03/08 08:32:23;;;;;;;18.70;12.02;;;;;;;;;;5052968;28;20048;-59
2022/03/08 08:34:49;;;;;;;20.83;11.82;;;;;;;;;;5052655;28;20037;-59
2022/03/08 08:37:15;;;;;;;19.05;12.18;;;;;;;;;;5069459;28;20080;-59
2022/03/08 08:39:41;;;;;;;20.55;12.13;;;;;;;;;;5068858;28;20094;-58
2022/03/08 08:42:07;;;;;;;17.63;11.32;;;;;;;;;;5071140;28;20040;-58
2022/03/08 08:44:34;;;;;;;17.40;10.10;;;;;;;;;;5064976;28;20045;-59
2022/03/08 08:47:01;;;;;;;20.38;12.38;;;;;;;;;;5067046;28;20045;-59
2022/03/08 08:49:27;;;;;;;19.55;11.93;;;;;;;;;;5063956;28;20033;-59
2022/03/08 08:51:53;;;;;;;18.15;11.52;;;;;;;;;;5071197;28;20048;-59
2022/03/08 08:54:19;;;;;;;17.42;12.27;;;;;;;;;;5068277;28;20045;-59
2022/03/08 08:56:45;;;;;;;19.23;11.75;;;;;;;;;;5067904;28;20175;-59
2022/03/08 08:59:11;;;;;;;17.58;11.65;;;;;;;;;;5069841;28;20036;-59
2022/03/08 09:01:37;;;;;;;17.27;11.13;;;;;;;;;;5071069;28;20041;-59
2022/03/08 09:04:03;;;;;;;18.02;11.65;;;;;;;;;;5058523;28;20044;-59
2022/03/08 09:06:30;;;;;;;18.25;11.52;;;;;;;;;;5064480;28;20044;-59
2022/03/08 09:08:56;;;;;;;19.88;11.20;;;;;;;;;;5067743;28;20052;-58
2022/03/08 09:11:22;;;;;;;21.52;11.93;;;;;;;;;;5060537;28;20601;-58
2022/03/08 09:13:48;;;;;;;17.17;11.40;;;;;;;;;;5062898;28;20040;-58
2022/03/08 09:16:17;;;;;;;17.63;11.13;;;;;;;;;;5067868;28;20036;-59
2022/03/08 09:18:44;;;;;;;17.48;11.48;;;;;;;;;;5063185;28;20483;-59
2022/03/08 09:21:10;;;;;;;17.75;11.02;;;;;;;;;;5058403;28;20489;-59
2022/03/08 09:23:37;;;;;;;16.17;10.70;;;;;;;;;;5071878;28;20040;-59
2022/03/08 09:26:03;;;;;;;16.63;10.55;;;;;;;;;;5067689;28;20056;-59
2022/03/08 09:28:29;;;;;;;16.83;11.05;;;;;;;;;;5068622;28;20083;-59
2022/03/08 09:30:55;;;;;;;18.45;11.15;;;;;;;;;;5062952;28;20067;-59
2022/03/08 09:33:21;;;;;;;16.60;10.75;;;;;;;;;;5062346;28;20071;-59
2022/03/08 09:35:47;;;;;;;15.68;10.35;;;;;;;;;;5066333;28;20041;-59
2022/03/08 09:38:13;;;;;;;17.40;11.07;;;;;;;;;;5057446;28;20043;-59
2022/03/08 09:40:39;;;;;;;14.65;9.73;;;;;;;;;;5065577;28;20068;-59
2022/03/08 09:43:05;;;;;;;14.90;10.07;;;;;;;;;;5060799;28;20039;-59
2022/03/08 09:45:31;;;;;;;16.65;10.60;;;;;;;;;;5070604;28;20621;-59
2022/03/08 09:47:57;;;;;;;15.88;10.52;;;;;;;;;;5067494;28;20036;-59
2022/03/08 09:50:23;;;;;;;16.98;10.32;;;;;;;;;;5073540;28;20143;-59
2022/03/08 09:52:49;;;;;;;13.20;9.88;;;;;;;;;;5065911;28;20086;-59
2022/03/08 09:55:16;;;;;;;15.13;10.70;;;;;;;;;;5059769;28;20405;-59
2022/03/08 09:57:42;;;;;;;16.85;10.77;;;;;;;;;;5062947;28;20545;-59
2022/03/08 10:00:09;;;;;;;14.40;9.95;;;;;;;;;;5069919;28;20039;-59
2022/03/08 10:02:45;;;;;;;16.33;10.40;;;;;;;;;;5070887;28;20473;-59
2022/03/08 10:05:11;;;;;;;13.65;9.48;;;;;;;;;;5060413;28;20036;-59
2022/03/08 10:07:37;;;;;;;14.13;10.45;;;;;;;;;;5064884;28;20407;-59
2022/03/08 10:10:03;;;;;;;15.43;9.77;;;;;;;;;;5082445;28;20044;-59
2022/03/08 10:12:29;;;;;;;14.32;10.00;;;;;;;;;;5082332;28;20037;-59
2022/03/08 10:14:56;;;;;;;13.70;9.32;;;;;;;;;;5073265;28;20484;-59
2022/03/08 10:17:35;;;;;;;12.20;8.35;;;;;;;;;;5078046;28;20044;-59
2022/03/08 10:20:01;;;;;;;13.02;8.00;;;;;;;;;;5075943;28;20550;-59
2022/03/08 10:22:34;;;;;;;11.27;7.10;;;;;;;;;;5072005;28;20505;-59
2022/03/08 10:25:16;;;;;;;10.90;6.80;;;;;;;;;;5076079;28;20040;-59
2022/03/08 10:27:44;;;;;;;10.57;7.38;;;;;;;;;;5053585;28;20045;-59
2022/03/08 10:30:12;;;;;;;12.68;7.40;;;;;;;;;;5065332;28;20044;-59
2022/03/08 10:32:39;;;;;;;7.85;6.20;;;;;;;;;;5072901;28;20040;-59
2022/03/08 10:35:05;;;;;;;9.70;6.95;;;;;;;;;;5071892;28;20582;-59
2022/03/08 10:37:35;;;;;;;9.05;6.60;;;;;;;;;;5072783;28;20041;-59
2022/03/08 10:40:03;;;;;;;9.40;5.82;;;;;;;;;;5071627;28;20040;-59
2022/03/08 10:42:31;;;;;;;9.52;6.32;;;;;;;;;;5083537;28;20032;-59
2022/03/08 10:45:02;;;;;;;9.35;6.32;;;;;;;;;;5073055;28;20490;-59
2022/03/08 10:47:37;;;;;;;10.07;6.05;;;;;;;;;;5081963;28;20083;-59
2022/03/08 10:50:03;;;;;;;9.70;5.90;;;;;;;;;;5080682;28;20037;-59
2022/03/08 10:52:31;;;;;;;8.95;6.10;;;;;;;;;;5066819;28;20036;-59
2022/03/08 10:55:17;;;;;;;8.45;5.95;;;;;;;;;;5065874;28;20116;-59
2022/03/08 10:57:45;;;;;;;11.68;6.75;;;;;;;;;;5069482;28;20115;-62
2022/03/08 11:00:13;;;;;;;13.50;6.55;;;;;;;;;;5061862;28;20041;-59
2022/03/08 11:02:57;;;;;;;7.70;6.38;;;;;;;;;;5054878;28;20112;-60
2022/03/08 11:05:25;;;;;;;8.82;6.22;;;;;;;;;;5066597;28;20418;-59
2022/03/08 11:07:52;;;;;;;7.45;5.80;;;;;;;;;;5060586;28;20043;-59
2022/03/08 11:10:19;;;;;;;10.00;5.70;;;;;;;;;;5072590;28;20068;-59
2022/03/08 11:12:45;;;;;;;8.15;5.72;;;;;;;;;;5064363;28;20494;-59
2022/03/08 11:15:13;;;;;;;8.10;6.65;;;;;;;;;;5065968;28;20033;-59
2022/03/08 11:17:39;;;;;;;10.35;6.47;;;;;;;;;;5071667;28;20051;-59
2022/03/08 11:20:07;;;;;;;10.07;6.30;;;;;;;;;;5072045;28;20493;-59
2022/03/08 11:22:34;;;;;;;7.82;6.03;;;;;;;;;;5073599;28;20093;-59
2022/03/08 11:25:00;;;;;;;7.90;6.15;;;;;;;;;;5085277;22;20131;-59
2022/03/08 11:27:26;;;;;;;8.70;5.55;;;;;;;;;;5070843;28;20072;-59
2022/03/08 11:29:53;;;;;;;8.32;5.78;;;;;;;;;;5065787;28;20028;-59
2022/03/08 11:32:25;;;;;;;7.32;4.85;;;;;;;;;;5046215;28;20075;-59
2022/03/08 11:34:56;;;;;;;7.35;4.45;;;;;;;;;;5068327;28;20041;-59
2022/03/08 11:37:23;;;;;;;8.30;5.10;;;;;;;;;;5053299;28;20458;-59
2022/03/08 11:40:08;;;;;;;5.40;4.55;;;;;;;;;;5028859;28;20048;-59
2022/03/08 11:42:37;;;;;;;6.63;4.95;;;;;;;;;;5050397;28;20047;-60
2022/03/08 11:45:06;;;;;;;10.32;5.10;;;;;;;;;;5034131;28;20044;-59
2022/03/08 11:47:38;;;;;;;6.35;5.07;;;;;;;;;;5048944;28;20128;-60
2022/03/08 11:50:04;;;;;;;10.02;5.03;;;;;;;;;;5050265;28;20082;-60
2022/03/08 11:52:31;;;;;;;6.07;5.10;;;;;;;;;;5050950;28;20513;-59
2022/03/08 11:54:57;;;;;;;7.50;5.07;;;;;;;;;;5036502;28;20033;-59
2022/03/08 11:57:44;;;;;;;7.00;4.65;;;;;;;;;;5032037;28;20041;-59
2022/03/08 12:00:24;;;;;;;6.43;4.05;;;;;;;;;;5033887;28;20056;-60
2022/03/08 12:02:51;;;;;;;7.93;4.50;;;;;;;;;;5040257;28;20041;-59
2022/03/08 12:05:36;;;;;;;6.75;4.28;;;;;;;;;;5038555;28;20073;-59
2022/03/08 12:08:20;;;;;;;5.75;3.95;;;;;;;;;;5048582;28;20087;-59
2022/03/08 12:10:47;;;;;;;5.72;4.40;;;;;;;;;;5052076;28;20095;-59
2022/03/08 12:13:14;;;;;;;7.13;4.65;;;;;;;;;;5044012;28;20045;-59
2022/03/08 12:15:58;;;;;;;6.32;4.85;;;;;;;;;;5037973;28;20033;-59
2022/03/08 12:18:33;;;;;;;6.43;4.70;;;;;;;;;;5042411;28;20550;-59
2022/03/08 12:21:17;;;;;;;7.35;4.57;;;;;;;;;;5051979;28;20055;-59
2022/03/08 12:24:02;;;;;;;7.10;4.93;;;;;;;;;;5049129;28;20048;-59
2022/03/08 12:26:28;;;;;;;8.52;4.50;;;;;;;;;;5038528;28;20042;-59
2022/03/08 12:29:13;;;;;;;5.85;4.32;;;;;;;;;;5046296;28;20409;-59
2022/03/08 12:32:08;;;;;;;6.93;4.40;;;;;;;;;;5038503;28;20041;-59
2022/03/08 12:34:35;;;;;;;8.25;4.50;;;;;;;;;;5038947;28;20045;-59
2022/03/08 12:37:02;;;;;;;6.22;4.45;;;;;;;;;;5044336;28;20056;-59
2022/03/08 12:39:46;;;;;;;7.40;4.65;;;;;;;;;;5031082;28;20088;-59
2022/03/08 12:42:19;;;;;;;7.90;5.18;;;;;;;;;;5040493;28;20452;-59
2022/03/08 12:44:57;;;;;;;6.63;4.82;;;;;;;;;;5045764;28;20129;-59
2022/03/08 12:47:23;;;;;;;5.85;4.60;;;;;;;;;;5043960;28;20045;-59
2022/03/08 12:49:50;;;;;;;7.15;4.72;;;;;;;;;;5049013;28;20435;-59
2022/03/08 12:52:17;;;;;;;6.90;5.10;;;;;;;;;;5043150;28;20085;-60
2022/03/08 12:54:43;;;;;;;6.18;4.60;;;;;;;;;;5050749;28;20429;-59
2022/03/08 12:57:10;;;;;;;7.22;4.68;;;;;;;;;;5047966;28;20044;-60
2022/03/08 12:59:43;;;;;;;5.75;5.10;;;;;;;;;;5038237;28;20686;-59
2022/03/08 13:02:10;;;;;;;7.05;4.60;;;;;;;;;;5064758;28;20406;-59
2022/03/08 13:04:36;;;;;;;8.05;5.75;;;;;;;;;;5043638;28;20043;-59
2022/03/08 13:07:16;;;;;;;6.35;4.82;;;;;;;;;;5047288;28;20034;-59
2022/03/08 13:09:48;;;;;;;8.43;5.78;;;;;;;;;;5049568;28;20041;-59
2022/03/08 13:12:21;;;;;;;8.77;6.28;;;;;;;;;;5041160;28;20244;-59
2022/03/08 13:15:07;;;;;;;8.30;5.45;;;;;;;;;;5044390;28;20040;-59
2022/03/08 13:17:33;;;;;;;11.52;5.90;;;;;;;;;;5046543;28;20041;-59
2022/03/08 13:19:59;;;;;;;8.88;6.15;;;;;;;;;;5047535;28;20056;-59
2022/03/08 13:22:25;;;;;;;8.32;6.32;;;;;;;;;;5050525;28;20389;-59
2022/03/08 13:25:08;;;;;;;9.90;6.15;;;;;;;;;;5041587;28;20037;-59
2022/03/08 13:27:53;;;;;;;7.63;5.05;;;;;;;;;;5042138;28;20044;-59
2022/03/08 13:30:23;;;;;;;8.20;5.40;;;;;;;;;;5053721;28;20072;-59
2022/03/08 13:33:08;;;;;;;8.53;5.23;;;;;;;;;;5043757;28;20037;-60
2022/03/08 13:35:37;;;;;;;7.93;5.57;;;;;;;;;;5052040;28;20287;-59
2022/03/08 13:38:03;;;;;;;7.40;5.65;;;;;;;;;;5046629;28;20426;-60
2022/03/08 13:40:33;;;;;;;8.70;5.75;;;;;;;;;;5048632;28;20050;-60
2022/03/08 13:43:00;;;;;;;7.13;5.45;;;;;;;;;;5047307;28;20044;-60
2022/03/08 13:45:26;;;;;;;9.27;5.63;;;;;;;;;;5052436;28;20086;-60
2022/03/08 13:47:54;;;;;;;8.15;5.30;;;;;;;;;;5050954;28;20040;-60
2022/03/08 13:50:21;;;;;;;7.63;5.53;;;;;;;;;;5049019;28;20037;-60
2022/03/08 13:52:57;;;;;;;7.82;5.03;;;;;;;;;;5038677;28;20154;-60
2022/03/08 13:55:30;;;;;;;6.90;4.60;;;;;;;;;;5048538;28;20044;-60
2022/03/08 13:57:57;;;;;;;8.00;5.55;;;;;;;;;;5048431;28;20406;-60
2022/03/08 14:00:32;;;;;;;7.15;4.60;;;;;;;;;;5047703;28;20045;-60
2022/03/08 14:02:58;;;;;;;7.13;4.82;;;;;;;;;;5055927;28;20032;-61
2022/03/08 14:05:25;;;;;;;6.85;4.65;;;;;;;;;;5041768;28;20552;-60
2022/03/08 14:07:54;;;;;;;8.77;4.53;;;;;;;;;;5052807;28;20040;-60
2022/03/08 14:10:20;;;;;;;6.00;4.43;;;;;;;;;;5051279;28;20125;-59
2022/03/08 14:12:47;;;;;;;7.75;4.30;;;;;;;;;;5049257;28;20115;-60
2022/03/08 14:15:13;;;;;;;7.25;3.90;;;;;;;;;;5048706;28;20549;-60
2022/03/08 14:17:39;;;;;;;6.18;4.38;;;;;;;;;;5063887;28;20040;-60
2022/03/08 14:20:16;;;;;;;4.68;4.13;;;;;;;;;;5033141;28;20051;-60
2022/03/08 14:23:02;;;;;;;7.15;4.05;;;;;;;;;;5052366;28;20040;-60
2022/03/08 14:25:28;;;;;;;5.50;4.53;;;;;;;;;;5045799;28;20033;-59
2022/03/08 14:27:54;;;;;;;5.38;4.63;;;;;;;;;;5050921;28;20033;-60